sensor_id;sensor_type;location;lat;lon;timestamp;pressure;altitude;pressure_sealevel;temperature;humidity
26859;BME280;14429;48.346;16.338;2024-02-21T00:01:48;100696.94;;;14.13;53.05
26859;BME280;14429;48.346;16.338;2024-02-21T00:04:14;100690.28;;;14.18;52.96
26859;BME280;14429;48.346;16.338;2024-02-21T00:06:39;100690.22;;;14.20;52.36
26859;BME280;14429;48.346;16.338;2024-02-21T00:09:04;100683.66;;;14.11;52.07
26859;BME280;14429;48.346;16.338;2024-02-21T00:11:30;100684.38;;;14.01;50.16
26859;BME280;14429;48.346;16.338;2024-02-21T00:13:55;100676.09;;;14.30;51.27
26859;BME280;14429;48.346;16.338;2024-02-21T00:16:21;100678.44;;;14.34;50.87
26859;BME280;14429;48.346;16.338;2024-02-21T00:18:48;100687.03;;;14.39;50.60
26859;BME280;14429;48.346;16.338;2024-02-21T00:21:13;100672.97;;;14.36;50.69
26859;BME280;14429;48.346;16.338;2024-02-21T00:23:39;100673.34;;;14.18;51.75
26859;BME280;14429;48.346;16.338;2024-02-21T00:26:04;100673.44;;;14.04;52.92
26859;BME280;14429;48.346;16.338;2024-02-21T00:28:29;100670.44;;;13.82;51.73
26859;BME280;14429;48.346;16.338;2024-02-21T00:30:55;100665.06;;;14.08;53.05
26859;BME280;14429;48.346;16.338;2024-02-21T00:33:20;100662.81;;;14.15;52.44
26859;BME280;14429;48.346;16.338;2024-02-21T00:35:47;100657.25;;;14.18;51.76
26859;BME280;14429;48.346;16.338;2024-02-21T00:38:12;100656.84;;;14.24;51.47
26859;BME280;14429;48.346;16.338;2024-02-21T00:40:38;100660.06;;;14.28;51.17
26859;BME280;14429;48.346;16.338;2024-02-21T00:43:03;100657.91;;;14.33;50.79
26859;BME280;14429;48.346;16.338;2024-02-21T00:45:28;100661.38;;;14.35;50.52
26859;BME280;14429;48.346;16.338;2024-02-21T00:47:54;100656.84;;;14.11;50.83
26859;BME280;14429;48.346;16.338;2024-02-21T00:50:19;100653.38;;;14.09;51.89
26859;BME280;14429;48.346;16.338;2024-02-21T00:52:46;100655.84;;;13.86;51.63
26859;BME280;14429;48.346;16.338;2024-02-21T00:55:11;100654.94;;;13.73;53.66
26859;BME280;14429;48.346;16.338;2024-02-21T00:57:37;100665.50;;;13.89;53.15
26859;BME280;14429;48.346;16.338;2024-02-21T01:00:03;100651.41;;;13.99;52.56
26859;BME280;14429;48.346;16.338;2024-02-21T01:02:28;100655.41;;;14.06;52.04
26859;BME280;14429;48.346;16.338;2024-02-21T01:04:54;100645.13;;;13.86;50.26
26859;BME280;14429;48.346;16.338;2024-02-21T01:07:19;100640.63;;;14.13;51.54
26859;BME280;14429;48.346;16.338;2024-02-21T01:09:46;100647.50;;;14.17;51.00
26859;BME280;14429;48.346;16.338;2024-02-21T01:12:11;100642.66;;;14.22;50.68
26859;BME280;14429;48.346;16.338;2024-02-21T01:14:37;100643.63;;;14.21;50.93
26859;BME280;14429;48.346;16.338;2024-02-21T01:17:02;100640.50;;;14.14;51.53
26859;BME280;14429;48.346;16.338;2024-02-21T01:19:28;100641.34;;;14.02;52.73
26859;BME280;14429;48.346;16.338;2024-02-21T01:21:53;100637.25;;;13.97;53.11
26859;BME280;14429;48.346;16.338;2024-02-21T01:24:18;100645.00;;;14.02;52.71
26859;BME280;14429;48.346;16.338;2024-02-21T01:26:45;100634.72;;;14.08;52.43
26859;BME280;14429;48.346;16.338;2024-02-21T01:29:11;100630.88;;;14.12;51.62
26859;BME280;14429;48.346;16.338;2024-02-21T01:31:36;100630.34;;;13.93;51.78
26859;BME280;14429;48.346;16.338;2024-02-21T01:34:01;100626.25;;;14.14;51.19
26859;BME280;14429;48.346;16.338;2024-02-21T01:36:27;100630.53;;;14.16;50.88
26859;BME280;14429;48.346;16.338;2024-02-21T01:38:52;100623.16;;;14.20;50.66
26859;BME280;14429;48.346;16.338;2024-02-21T01:41:18;100620.13;;;14.12;50.97
26859;BME280;14429;48.346;16.338;2024-02-21T01:43:44;100617.53;;;13.98;52.15
26859;BME280;14429;48.346;16.338;2024-02-21T01:46:10;100614.66;;;13.87;52.98
26859;BME280;14429;48.346;16.338;2024-02-21T01:48:35;100607.78;;;13.83;53.16
26859;BME280;14429;48.346;16.338;2024-02-21T01:51:01;100613.63;;;13.90;53.01
26859;BME280;14429;48.346;16.338;2024-02-21T01:53:30;100606.31;;;13.92;52.25
26859;BME280;14429;48.346;16.338;2024-02-21T01:55:57;100620.31;;;13.97;51.81
26859;BME280;14429;48.346;16.338;2024-02-21T01:58:23;100610.00;;;14.03;51.38
26859;BME280;14429;48.346;16.338;2024-02-21T02:00:50;100608.09;;;14.05;51.14
26859;BME280;14429;48.346;16.338;2024-02-21T02:03:16;100598.09;;;14.07;50.69
26859;BME280;14429;48.346;16.338;2024-02-21T02:05:41;100599.53;;;14.12;50.49
26859;BME280;14429;48.346;16.338;2024-02-21T02:08:06;100599.50;;;14.00;51.12
26859;BME280;14429;48.346;16.338;2024-02-21T02:10:32;100594.56;;;13.94;51.86
26859;BME280;14429;48.346;16.338;2024-02-21T02:12:57;100600.53;;;13.85;52.63
26859;BME280;14429;48.346;16.338;2024-02-21T02:15:23;100592.47;;;13.85;53.04
26859;BME280;14429;48.346;16.338;2024-02-21T02:17:49;100588.72;;;13.88;52.52
26859;BME280;14429;48.346;16.338;2024-02-21T02:20:15;100591.06;;;13.92;52.08
26859;BME280;14429;48.346;16.338;2024-02-21T02:22:42;100589.28;;;13.93;51.80
26859;BME280;14429;48.346;16.338;2024-02-21T02:25:10;100590.50;;;14.01;51.31
26859;BME280;14429;48.346;16.338;2024-02-21T02:27:41;100592.41;;;13.99;50.96
26859;BME280;14429;48.346;16.338;2024-02-21T02:30:08;100590.06;;;14.07;50.54
26859;BME280;14429;48.346;16.338;2024-02-21T02:32:33;100581.81;;;14.10;50.47
26859;BME280;14429;48.346;16.338;2024-02-21T02:34:59;100585.88;;;14.03;50.91
26859;BME280;14429;48.346;16.338;2024-02-21T02:37:24;100591.97;;;13.93;51.93
26859;BME280;14429;48.346;16.338;2024-02-21T02:39:49;100582.91;;;13.81;52.82
26859;BME280;14429;48.346;16.338;2024-02-21T02:42:16;100585.03;;;13.76;52.65
26859;BME280;14429;48.346;16.338;2024-02-21T02:44:41;100573.47;;;13.88;52.54
26859;BME280;14429;48.346;16.338;2024-02-21T02:47:08;100570.91;;;13.87;52.01
26859;BME280;14429;48.346;16.338;2024-02-21T02:49:34;100575.41;;;13.86;51.69
26859;BME280;14429;48.346;16.338;2024-02-21T02:51:59;100567.91;;;13.91;51.39
26859;BME280;14429;48.346;16.338;2024-02-21T02:54:24;100560.34;;;13.98;51.00
26859;BME280;14429;48.346;16.338;2024-02-21T02:56:50;100568.06;;;14.02;50.60
26859;BME280;14429;48.346;16.338;2024-02-21T02:59:17;100562.72;;;14.02;50.60
26859;BME280;14429;48.346;16.338;2024-02-21T03:01:42;100563.03;;;13.98;51.04
26859;BME280;14429;48.346;16.338;2024-02-21T03:04:07;100567.59;;;13.83;52.27
26859;BME280;14429;48.346;16.338;2024-02-21T03:06:33;100565.75;;;13.84;52.57
26859;BME280;14429;48.346;16.338;2024-02-21T03:08:58;100562.00;;;13.74;52.97
26859;BME280;14429;48.346;16.338;2024-02-21T03:11:24;100563.59;;;13.76;52.78
26859;BME280;14429;48.346;16.338;2024-02-21T03:13:49;100563.06;;;13.72;52.45
26859;BME280;14429;48.346;16.338;2024-02-21T03:16:18;100563.19;;;13.82;51.80
26859;BME280;14429;48.346;16.338;2024-02-21T03:18:43;100556.66;;;13.86;51.36
26859;BME280;14429;48.346;16.338;2024-02-21T03:21:09;100560.94;;;13.89;50.98
26859;BME280;14429;48.346;16.338;2024-02-21T03:23:34;100554.44;;;13.93;50.79
26859;BME280;14429;48.346;16.338;2024-02-21T03:25:59;100549.72;;;13.96;50.55
26859;BME280;14429;48.346;16.338;2024-02-21T03:28:25;100547.31;;;13.79;51.22
26859;BME280;14429;48.346;16.338;2024-02-21T03:30:50;100553.63;;;13.78;52.31
26859;BME280;14429;48.346;16.338;2024-02-21T03:33:17;100554.09;;;13.59;52.90
26859;BME280;14429;48.346;16.338;2024-02-21T03:35:42;100548.75;;;13.59;53.19
26859;BME280;14429;48.346;16.338;2024-02-21T03:38:08;100558.66;;;13.71;52.77
26859;BME280;14429;48.346;16.338;2024-02-21T03:40:33;100559.34;;;13.22;52.86
26859;BME280;14429;48.346;16.338;2024-02-21T03:42:58;100550.91;;;13.66;52.04
26859;BME280;14429;48.346;16.338;2024-02-21T03:45:24;100555.47;;;13.78;51.60
26859;BME280;14429;48.346;16.338;2024-02-21T03:47:49;100555.16;;;13.82;51.20
26859;BME280;14429;48.346;16.338;2024-02-21T03:50:16;100553.78;;;13.89;50.87
26859;BME280;14429;48.346;16.338;2024-02-21T03:52:42;100548.41;;;13.89;50.53
26859;BME280;14429;48.346;16.338;2024-02-21T03:55:07;100547.31;;;13.79;51.39
26859;BME280;14429;48.346;16.338;2024-02-21T03:57:33;100552.59;;;13.55;52.29
26859;BME280;14429;48.346;16.338;2024-02-21T03:59:58;100563.97;;;13.32;52.34
26859;BME280;14429;48.346;16.338;2024-02-21T04:02:24;100556.88;;;13.45;53.31
26859;BME280;14429;48.346;16.338;2024-02-21T04:04:49;100546.84;;;13.61;52.90
26859;BME280;14429;48.346;16.338;2024-02-21T04:07:16;100544.50;;;13.69;52.22
26859;BME280;14429;48.346;16.338;2024-02-21T04:09:41;100553.03;;;12.83;49.69
26859;BME280;14429;48.346;16.338;2024-02-21T04:12:08;100540.59;;;13.48;51.90
26859;BME280;14429;48.346;16.338;2024-02-21T04:14:34;100549.75;;;13.70;51.42
26859;BME280;14429;48.346;16.338;2024-02-21T04:16:59;100544.94;;;13.11;50.89
26859;BME280;14429;48.346;16.338;2024-02-21T04:19:24;100554.34;;;13.56;51.25
26859;BME280;14429;48.346;16.338;2024-02-21T04:21:50;100549.00;;;13.68;51.53
26859;BME280;14429;48.346;16.338;2024-02-21T04:24:16;100544.22;;;13.47;52.61
26859;BME280;14429;48.346;16.338;2024-02-21T04:26:42;100543.81;;;13.53;53.08
26859;BME280;14429;48.346;16.338;2024-02-21T04:29:07;100542.72;;;13.55;53.14
26859;BME280;14429;48.346;16.338;2024-02-21T04:31:33;100543.38;;;13.59;53.00
26859;BME280;14429;48.346;16.338;2024-02-21T04:33:58;100539.69;;;13.35;52.52
26859;BME280;14429;48.346;16.338;2024-02-21T04:36:23;100535.34;;;13.59;51.72
26859;BME280;14429;48.346;16.338;2024-02-21T04:38:49;100537.44;;;13.68;51.54
26859;BME280;14429;48.346;16.338;2024-02-21T04:41:16;100534.53;;;13.71;51.33
26859;BME280;14429;48.346;16.338;2024-02-21T04:43:41;100532.47;;;13.62;49.86
26859;BME280;14429;48.346;16.338;2024-02-21T04:46:06;100532.94;;;13.80;50.54
26859;BME280;14429;48.346;16.338;2024-02-21T04:48:32;100537.63;;;13.65;51.02
26859;BME280;14429;48.346;16.338;2024-02-21T04:50:57;100539.75;;;13.60;52.30
26859;BME280;14429;48.346;16.338;2024-02-21T04:53:23;100538.25;;;13.56;52.92
26859;BME280;14429;48.346;16.338;2024-02-21T04:55:48;100536.94;;;13.49;53.12
26859;BME280;14429;48.346;16.338;2024-02-21T04:58:15;100536.03;;;13.36;52.44
26859;BME280;14429;48.346;16.338;2024-02-21T05:00:40;100524.09;;;13.54;52.39
26859;BME280;14429;48.346;16.338;2024-02-21T05:03:06;100528.13;;;13.47;52.04
26859;BME280;14429;48.346;16.338;2024-02-21T05:05:31;100529.59;;;13.65;51.36
26859;BME280;14429;48.346;16.338;2024-02-21T05:07:56;100528.41;;;13.69;51.12
26859;BME280;14429;48.346;16.338;2024-02-21T05:10:22;100524.56;;;13.73;50.85
26859;BME280;14429;48.346;16.338;2024-02-21T05:12:47;100528.22;;;13.72;50.55
26859;BME280;14429;48.346;16.338;2024-02-21T05:15:14;100530.56;;;13.64;51.15
26859;BME280;14429;48.346;16.338;2024-02-21T05:17:39;100520.44;;;13.55;52.28
26859;BME280;14429;48.346;16.338;2024-02-21T05:20:06;100519.75;;;13.39;51.63
26859;BME280;14429;48.346;16.338;2024-02-21T05:22:31;100524.72;;;13.45;53.17
26859;BME280;14429;48.346;16.338;2024-02-21T05:24:57;100519.91;;;13.50;52.89
26859;BME280;14429;48.346;16.338;2024-02-21T05:27:22;100522.19;;;13.56;52.32
26859;BME280;14429;48.346;16.338;2024-02-21T05:29:48;100511.03;;;13.62;51.69
26859;BME280;14429;48.346;16.338;2024-02-21T05:32:14;100509.13;;;13.64;51.38
26859;BME280;14429;48.346;16.338;2024-02-21T05:34:40;100510.81;;;13.65;51.18
26859;BME280;14429;48.346;16.338;2024-02-21T05:37:05;100518.09;;;13.63;50.69
26859;BME280;14429;48.346;16.338;2024-02-21T05:39:30;100509.53;;;13.70;50.52
26859;BME280;14429;48.346;16.338;2024-02-21T05:41:56;100507.16;;;13.66;50.91
26859;BME280;14429;48.346;16.338;2024-02-21T05:44:21;100506.50;;;13.50;52.40
26859;BME280;14429;48.346;16.338;2024-02-21T05:46:47;100506.50;;;13.50;52.75
26859;BME280;14429;48.346;16.338;2024-02-21T05:49:13;100513.44;;;13.40;53.08
26859;BME280;14429;48.346;16.338;2024-02-21T05:51:39;100514.03;;;13.19;53.13
26859;BME280;14429;48.346;16.338;2024-02-21T05:54:04;100515.22;;;13.27;52.05
26859;BME280;14429;48.346;16.338;2024-02-21T05:56:30;100510.16;;;13.49;51.94
26859;BME280;14429;48.346;16.338;2024-02-21T05:58:55;100512.88;;;13.35;51.30
26859;BME280;14429;48.346;16.338;2024-02-21T06:01:21;100507.81;;;13.57;51.20
26859;BME280;14429;48.346;16.338;2024-02-21T06:03:46;100501.06;;;13.25;49.36
26859;BME280;14429;48.346;16.338;2024-02-21T06:06:13;100507.38;;;13.63;50.62
26859;BME280;14429;48.346;16.338;2024-02-21T06:08:39;100507.81;;;13.57;51.02
26859;BME280;14429;48.346;16.338;2024-02-21T06:11:04;100503.28;;;13.45;51.89
26859;BME280;14429;48.346;16.338;2024-02-21T06:13:30;100506.34;;;13.01;52.20
26859;BME280;14429;48.346;16.338;2024-02-21T06:15:55;100498.75;;;13.33;53.05
26859;BME280;14429;48.346;16.338;2024-02-21T06:18:21;100500.25;;;13.37;52.88
26859;BME280;14429;48.346;16.338;2024-02-21T06:20:46;100508.66;;;13.45;52.07
26859;BME280;14429;48.346;16.338;2024-02-21T06:23:15;100504.59;;;13.52;51.63
26859;BME280;14429;48.346;16.338;2024-02-21T06:25:41;100496.88;;;13.60;51.04
26859;BME280;14429;48.346;16.338;2024-02-21T06:28:06;100499.13;;;13.66;50.80
26859;BME280;14429;48.346;16.338;2024-02-21T06:30:31;100488.63;;;13.63;50.69
26859;BME280;14429;48.346;16.338;2024-02-21T06:32:57;100484.78;;;13.67;50.44
26859;BME280;14429;48.346;16.338;2024-02-21T06:35:23;100480.34;;;13.41;48.91
26859;BME280;14429;48.346;16.338;2024-02-21T06:37:48;100486.56;;;13.42;52.26
26859;BME280;14429;48.346;16.338;2024-02-21T06:40:15;100482.91;;;13.43;52.53
26859;BME280;14429;48.346;16.338;2024-02-21T06:42:40;100483.03;;;13.41;52.70
26859;BME280;14429;48.346;16.338;2024-02-21T06:45:06;100485.13;;;13.36;52.92
26859;BME280;14429;48.346;16.338;2024-02-21T06:47:32;100483.75;;;13.43;52.22
26859;BME280;14429;48.346;16.338;2024-02-21T06:49:57;100483.34;;;13.49;51.77
26859;BME280;14429;48.346;16.338;2024-02-21T06:52:22;100489.06;;;13.57;51.18
26859;BME280;14429;48.346;16.338;2024-02-21T06:54:48;100486.56;;;13.54;50.95
26859;BME280;14429;48.346;16.338;2024-02-21T06:57:14;100484.41;;;13.47;50.82
26859;BME280;14429;48.346;16.338;2024-02-21T06:59:40;100486.44;;;13.43;50.52
26859;BME280;14429;48.346;16.338;2024-02-21T07:02:06;100493.41;;;13.46;50.75
26859;BME280;14429;48.346;16.338;2024-02-21T07:04:31;100488.72;;;13.49;51.77
26859;BME280;14429;48.346;16.338;2024-02-21T07:06:56;100497.00;;;13.32;52.45
26859;BME280;14429;48.346;16.338;2024-02-21T07:09:22;100493.41;;;13.33;52.52
26859;BME280;14429;48.346;16.338;2024-02-21T07:11:47;100492.63;;;13.31;51.69
26859;BME280;14429;48.346;16.338;2024-02-21T07:14:15;100503.28;;;13.45;52.14
26859;BME280;14429;48.346;16.338;2024-02-21T07:16:40;100484.94;;;13.39;51.87
26859;BME280;14429;48.346;16.338;2024-02-21T07:19:06;100486.78;;;13.51;51.24
26859;BME280;14429;48.346;16.338;2024-02-21T07:21:31;100491.72;;;13.57;50.95
26859;BME280;14429;48.346;16.338;2024-02-21T07:23:57;100490.34;;;13.64;50.62
26859;BME280;14429;48.346;16.338;2024-02-21T07:26:22;100486.56;;;13.54;50.42
26859;BME280;14429;48.346;16.338;2024-02-21T07:28:47;100484.22;;;13.62;50.52
26859;BME280;14429;48.346;16.338;2024-02-21T07:31:14;100478.34;;;13.57;51.28
26859;BME280;14429;48.346;16.338;2024-02-21T07:33:40;100480.34;;;13.41;51.90
26859;BME280;14429;48.346;16.338;2024-02-21T07:36:06;100483.44;;;13.35;52.72
26859;BME280;14429;48.346;16.338;2024-02-21T07:38:32;100481.19;;;13.29;52.83
26859;BME280;14429;48.346;16.338;2024-02-21T07:40:57;100482.09;;;13.16;51.67
26859;BME280;14429;48.346;16.338;2024-02-21T07:43:22;100473.25;;;13.40;51.79
26859;BME280;14429;48.346;16.338;2024-02-21T07:45:48;100478.44;;;12.91;49.11
26859;BME280;14429;48.346;16.338;2024-02-21T07:48:15;100474.41;;;13.36;51.19
26859;BME280;14429;48.346;16.338;2024-02-21T07:50:40;100463.31;;;13.42;50.79
26859;BME280;14429;48.346;16.338;2024-02-21T07:53:05;100469.75;;;13.52;50.20
26859;BME280;14429;48.346;16.338;2024-02-21T07:55:31;100457.63;;;13.59;50.33
26859;BME280;14429;48.346;16.338;2024-02-21T07:57:56;100462.31;;;13.43;50.88
26859;BME280;14429;48.346;16.338;2024-02-21T08:00:22;100467.66;;;13.31;50.74
26859;BME280;14429;48.346;16.338;2024-02-21T08:02:48;100463.38;;;13.28;50.68
26859;BME280;14429;48.346;16.338;2024-02-21T08:05:15;100455.47;;;13.39;52.52
26859;BME280;14429;48.346;16.338;2024-02-21T08:07:40;100459.44;;;13.34;51.72
26859;BME280;14429;48.346;16.338;2024-02-21T08:10:07;100458.44;;;13.22;51.42
26859;BME280;14429;48.346;16.338;2024-02-21T08:12:32;100465.44;;;13.37;51.15
26859;BME280;14429;48.346;16.338;2024-02-21T08:14:58;100460.19;;;13.10;50.13
26859;BME280;14429;48.346;16.338;2024-02-21T08:17:23;100461.72;;;13.52;50.82
26859;BME280;14429;48.346;16.338;2024-02-21T08:19:49;100451.31;;;13.09;50.42
26859;BME280;14429;48.346;16.338;2024-02-21T08:22:15;100459.13;;;13.50;50.50
26859;BME280;14429;48.346;16.338;2024-02-21T08:24:41;100447.53;;;13.38;50.83
26859;BME280;14429;48.346;16.338;2024-02-21T08:27:06;100453.09;;;13.35;52.19
26859;BME280;14429;48.346;16.338;2024-02-21T08:29:32;100440.25;;;13.40;52.44
26859;BME280;14429;48.346;16.338;2024-02-21T08:31:58;100444.00;;;13.37;52.71
26859;BME280;14429;48.346;16.338;2024-02-21T08:34:23;100448.19;;;13.41;51.94
26859;BME280;14429;48.346;16.338;2024-02-21T08:36:48;100433.72;;;13.44;51.63
26859;BME280;14429;48.346;16.338;2024-02-21T08:39:15;100433.28;;;13.37;50.42
26859;BME280;14429;48.346;16.338;2024-02-21T08:41:41;100427.28;;;13.46;49.98
26859;BME280;14429;48.346;16.338;2024-02-21T08:44:06;100429.56;;;13.52;50.53
26859;BME280;14429;48.346;16.338;2024-02-21T08:46:31;100425.59;;;13.57;49.91
26859;BME280;14429;48.346;16.338;2024-02-21T08:48:57;100425.72;;;13.56;49.99
26859;BME280;14429;48.346;16.338;2024-02-21T08:51:22;100427.41;;;13.57;50.07
26859;BME280;14429;48.346;16.338;2024-02-21T08:53:48;100434.03;;;13.39;51.41
26859;BME280;14429;48.346;16.338;2024-02-21T08:56:15;100431.47;;;13.38;51.37
26859;BME280;14429;48.346;16.338;2024-02-21T08:58:41;100440.69;;;13.34;52.01
26859;BME280;14429;48.346;16.338;2024-02-21T09:01:07;100420.88;;;13.48;51.39
26859;BME280;14429;48.346;16.338;2024-02-21T09:03:32;100420.44;;;13.54;51.28
26859;BME280;14429;48.346;16.338;2024-02-21T09:05:58;100417.34;;;13.48;51.63
26859;BME280;14429;48.346;16.338;2024-02-21T09:08:23;100425.47;;;13.47;51.48
26859;BME280;14429;48.346;16.338;2024-02-21T09:10:48;100412.81;;;13.36;51.62
26859;BME280;14429;48.346;16.338;2024-02-21T09:13:15;100427.84;;;13.51;50.83
26859;BME280;14429;48.346;16.338;2024-02-21T09:15:42;100419.25;;;13.58;49.73
26859;BME280;14429;48.346;16.338;2024-02-21T09:18:07;100427.22;;;13.60;50.24
26859;BME280;14429;48.346;16.338;2024-02-21T09:20:32;100421.84;;;13.60;49.42
26859;BME280;14429;48.346;16.338;2024-02-21T09:22:58;100418.19;;;13.61;49.79
26859;BME280;14429;48.346;16.338;2024-02-21T09:25:23;100413.69;;;13.49;50.81
26859;BME280;14429;48.346;16.338;2024-02-21T09:27:49;100419.34;;;13.32;51.83
26859;BME280;14429;48.346;16.338;2024-02-21T09:30:16;100408.84;;;13.29;52.23
26859;BME280;14429;48.346;16.338;2024-02-21T09:32:41;100415.59;;;13.35;51.85
26859;BME280;14429;48.346;16.338;2024-02-21T09:35:07;100401.16;;;13.37;51.26
26859;BME280;14429;48.346;16.338;2024-02-21T09:37:32;100401.28;;;13.48;51.58
26859;BME280;14429;48.346;16.338;2024-02-21T09:39:58;100403.19;;;13.46;51.21
26859;BME280;14429;48.346;16.338;2024-02-21T09:42:30;100406.19;;;13.42;51.13
26859;BME280;14429;48.346;16.338;2024-02-21T09:45:02;100400.63;;;13.45;48.90
26859;BME280;14429;48.346;16.338;2024-02-21T09:47:37;100403.84;;;13.49;50.61
26859;BME280;14429;48.346;16.338;2024-02-21T09:50:05;100387.22;;;13.57;50.40
26859;BME280;14429;48.346;16.338;2024-02-21T09:52:32;100387.03;;;13.60;50.17
26859;BME280;14429;48.346;16.338;2024-02-21T09:55:01;100388.72;;;13.61;50.30
26859;BME280;14429;48.346;16.338;2024-02-21T09:57:26;100381.53;;;13.49;49.26
26859;BME280;14429;48.346;16.338;2024-02-21T09:59:52;100380.91;;;13.46;51.29
26859;BME280;14429;48.346;16.338;2024-02-21T10:02:18;100379.84;;;13.48;51.75
26859;BME280;14429;48.346;16.338;2024-02-21T10:04:44;100378.31;;;13.44;51.41
26859;BME280;14429;48.346;16.338;2024-02-21T10:07:10;100387.88;;;13.48;51.34
26859;BME280;14429;48.346;16.338;2024-02-21T10:09:36;100383.25;;;13.50;51.46
26859;BME280;14429;48.346;16.338;2024-02-21T10:12:08;100381.63;;;13.47;51.65
26859;BME280;14429;48.346;16.338;2024-02-21T10:14:33;100375.00;;;13.53;50.85
26859;BME280;14429;48.346;16.338;2024-02-21T10:16:59;100370.63;;;13.52;49.49
26859;BME280;14429;48.346;16.338;2024-02-21T10:19:24;100379.19;;;13.57;50.55
26859;BME280;14429;48.346;16.338;2024-02-21T10:22:01;100368.47;;;13.57;48.75
26859;BME280;14429;48.346;16.338;2024-02-21T10:24:27;100381.22;;;13.66;49.93
26859;BME280;14429;48.346;16.338;2024-02-21T10:26:59;100379.38;;;13.66;50.11
26859;BME280;14429;48.346;16.338;2024-02-21T10:29:24;100363.84;;;13.59;50.46
26859;BME280;14429;48.346;16.338;2024-02-21T10:31:50;100370.19;;;13.58;49.05
26859;BME280;14429;48.346;16.338;2024-02-21T10:34:16;100377.69;;;13.53;51.62
26859;BME280;14429;48.346;16.338;2024-02-21T10:36:41;100378.75;;;13.50;51.73
26859;BME280;14429;48.346;16.338;2024-02-21T10:39:08;100372.00;;;13.57;49.31
26859;BME280;14429;48.346;16.338;2024-02-21T10:41:34;100365.16;;;13.53;51.55
26859;BME280;14429;48.346;16.338;2024-02-21T10:44:02;100365.25;;;13.52;50.88
26859;BME280;14429;48.346;16.338;2024-02-21T10:46:32;100361.41;;;13.56;51.24
26859;BME280;14429;48.346;16.338;2024-02-21T10:49:06;100346.91;;;13.58;50.33
26859;BME280;14429;48.346;16.338;2024-02-21T10:51:34;100348.31;;;13.64;50.72
26859;BME280;14429;48.346;16.338;2024-02-21T10:54:13;100341.00;;;13.66;50.31
26859;BME280;14429;48.346;16.338;2024-02-21T10:56:41;100341.78;;;13.68;50.22
26859;BME280;14429;48.346;16.338;2024-02-21T10:59:07;100338.66;;;13.73;49.98
26859;BME280;14429;48.346;16.338;2024-02-21T11:01:33;100336.41;;;13.68;49.45
26859;BME280;14429;48.346;16.338;2024-02-21T11:04:01;100339.44;;;13.63;50.86
26859;BME280;14429;48.346;16.338;2024-02-21T11:06:27;100336.19;;;13.58;51.45
26859;BME280;14429;48.346;16.338;2024-02-21T11:09:03;100322.41;;;13.52;51.75
26859;BME280;14429;48.346;16.338;2024-02-21T11:11:32;100332.03;;;13.42;51.97
26859;BME280;14429;48.346;16.338;2024-02-21T11:14:05;100316.81;;;13.43;50.84
26859;BME280;14429;48.346;16.338;2024-02-21T11:16:35;100327.84;;;13.38;52.07
26859;BME280;14429;48.346;16.338;2024-02-21T11:19:04;100323.03;;;13.31;52.21
26859;BME280;14429;48.346;16.338;2024-02-21T11:21:33;100320.03;;;13.35;51.76
26859;BME280;14429;48.346;16.338;2024-02-21T11:23:58;100313.81;;;13.47;51.16
26859;BME280;14429;48.346;16.338;2024-02-21T11:26:28;100304.38;;;13.54;50.73
26859;BME280;14429;48.346;16.338;2024-02-21T11:28:58;100307.16;;;13.52;49.03
26859;BME280;14429;48.346;16.338;2024-02-21T11:31:24;100301.28;;;13.60;50.12
26859;BME280;14429;48.346;16.338;2024-02-21T11:33:51;100293.44;;;13.57;50.47
26859;BME280;14429;48.346;16.338;2024-02-21T11:36:24;100291.97;;;13.41;51.74
26859;BME280;14429;48.346;16.338;2024-02-21T11:38:50;100284.88;;;13.40;52.01
26859;BME280;14429;48.346;16.338;2024-02-21T11:41:16;100283.59;;;13.45;51.91
26859;BME280;14429;48.346;16.338;2024-02-21T11:43:41;100279.94;;;13.46;52.00
26859;BME280;14429;48.346;16.338;2024-02-21T11:46:08;100270.94;;;13.47;50.85
26859;BME280;14429;48.346;16.338;2024-02-21T11:48:34;100264.50;;;13.49;49.34
26859;BME280;14429;48.346;16.338;2024-02-21T11:50:59;100257.31;;;13.50;51.54
26859;BME280;14429;48.346;16.338;2024-02-21T11:53:25;100258.94;;;13.52;51.53
26859;BME280;14429;48.346;16.338;2024-02-21T11:55:50;100255.28;;;13.53;50.97
26859;BME280;14429;48.346;16.338;2024-02-21T11:58:16;100253.97;;;13.59;50.67
26859;BME280;14429;48.346;16.338;2024-02-21T12:00:41;100245.50;;;13.65;50.50
26859;BME280;14429;48.346;16.338;2024-02-21T12:03:09;100246.38;;;13.65;50.46
26859;BME280;14429;48.346;16.338;2024-02-21T12:05:34;100244.69;;;13.52;50.51
26859;BME280;14429;48.346;16.338;2024-02-21T12:08:00;100241.91;;;13.53;50.75
26859;BME280;14429;48.346;16.338;2024-02-21T12:10:26;100235.59;;;13.42;51.74
26859;BME280;14429;48.346;16.338;2024-02-21T12:12:53;100234.75;;;13.42;52.02
26859;BME280;14429;48.346;16.338;2024-02-21T12:15:18;100229.25;;;13.43;52.04
26859;BME280;14429;48.346;16.338;2024-02-21T12:17:44;100239.13;;;13.43;51.90
26859;BME280;14429;48.346;16.338;2024-02-21T12:20:11;100232.16;;;13.40;51.92
26859;BME280;14429;48.346;16.338;2024-02-21T12:22:37;100230.22;;;13.42;51.94
26859;BME280;14429;48.346;16.338;2024-02-21T12:25:03;100224.03;;;13.42;52.11
26859;BME280;14429;48.346;16.338;2024-02-21T12:27:28;100233.66;;;13.44;51.20
26859;BME280;14429;48.346;16.338;2024-02-21T12:29:54;100236.66;;;13.52;51.07
26859;BME280;14429;48.346;16.338;2024-02-21T12:32:19;100237.59;;;13.51;48.79
26859;BME280;14429;48.346;16.338;2024-02-21T12:34:45;100225.06;;;13.64;50.24